KEVB/EVB METAR and TAF weather

Enter ICAO airport designator
Station Type Date Time Source
KEVB METAR 2022/12/04 02:47 UTC NOAA

KEVB 040247Z 00000KT 7SM FEW048 18/17 A3028 RMK LAST


Station Type Date Time Source
KEVB Decoded METAR 2022/12/04 02:47 UTC NOAA

New Smyrna Beach, New Smyrna Beach Municipal Airport, FL, United States (KEVB) 29-03-20N 080-56-54W
Dec 03, 2022 - 09:47 PM EST / 2022.12.04 0247 UTC
Wind: Calm:0
Visibility: 7 mile(s):0
Sky conditions: mostly clear
Temperature: 64 F (18 C)
Dew Point: 62 F (17 C)
Relative Humidity: 93%
Pressure (altimeter): 30.28 in. Hg (1025 hPa)
ob: KEVB 040247Z 00000KT 7SM FEW048 18/17 A3028 RMK LAST
cycle: 3

Station Type Date Time Source
KEVB TAF UTC NOAA

Error!

Example: see airport list